首页
METAR-TAF:

METAR-TAF

机场 :

博兹曼机场

博兹曼, 蒙大拿州, 美国

纬度: 45-47-17N, 经度: 111-09-39W, 海拔: 1364米

当前天气观测

该预报发布于1小时和34分钟前的14:56 UTC
静风
温度 19°C
湿度 60%
气压 1027 hPa
能見度: 16.1公里
天空无云

METAR: KBZN 211456Z 00000KT 10SM CLR 19/11 A3033 RMK AO2 SLP233 T01890111 50001

时间: 10:30 (16:30 UTC)

预报

该预报发布于5小时和10分钟前的11:20 UTC
预报有效从21日的 12点(UTC)到 22日的 18点(UTC)
风速6节,风向多变
能見度: 10公里
少量云层高于25000英尺
从 21日的 2200点(UTC)
风速10节,风向
能見度: 10公里
少量云层高于25000英尺
从 22日的 0900点(UTC)
风速6节,风向多变
能見度: 10公里
天空无云

TAF: KBZN 211120Z 2112/2218 VRB06KT P6SM FEW250 FM212200 10010KT P6SM FEW250 FM220900 VRB06KT P6SM SKC

超过4000个机场的气象观测和天气预报(METAR&TAF报告)。

可查询的气象台以黄色和红色小点在地图上表示。

将鼠标移到小点上方,可查看气象台名称。

然后点击查看天气观测和预报。

如需切换地图:点击带黑十字的绿色按钮放大地图;点击带横线的绿色按钮缩小地图;或者点击绿色箭头查看邻近地区的地图。


METAR-TAF: